createdAt,value
2022-08-10T00:01:52.502Z,10.60
2022-08-10T00:04:23.158Z,9.10
2022-08-10T00:06:53.665Z,11.20
2022-08-10T00:09:24.006Z,12.20
2022-08-10T00:11:52.107Z,11.50
2022-08-10T00:14:20.188Z,12.30
2022-08-10T00:16:48.055Z,11.60
2022-08-10T00:19:17.225Z,10.40
2022-08-10T00:21:47.245Z,14.90
2022-08-10T00:24:21.976Z,9.40
2022-08-10T00:27:52.032Z,12.40
2022-08-10T00:29:38.380Z,13.90
2022-08-10T00:32:06.528Z,13.30
2022-08-10T00:34:35.048Z,13.40
2022-08-10T00:37:03.401Z,12.90
2022-08-10T00:39:36.404Z,10.30
2022-08-10T00:42:09.902Z,9.30
2022-08-10T00:44:56.036Z,10.40
2022-08-10T00:47:36.971Z,14.90
2022-08-10T00:50:08.151Z,7.30
2022-08-10T00:52:37.440Z,8.30
2022-08-10T00:55:06.915Z,7.10
2022-08-10T00:57:36.112Z,7.00
2022-08-10T01:00:06.171Z,8.50
2022-08-10T01:02:34.559Z,8.20
2022-08-10T01:05:08.730Z,7.40
2022-08-10T01:07:53.005Z,11.30
2022-08-10T01:10:20.864Z,16.90
2022-08-10T01:13:00.610Z,7.40
2022-08-10T01:15:52.564Z,8.80
2022-08-10T01:18:40.056Z,9.60
2022-08-10T01:21:28.122Z,8.20
2022-08-10T01:24:28.232Z,6.60
2022-08-10T01:26:56.047Z,9.00
2022-08-10T01:29:33.122Z,9.70
2022-08-10T01:32:09.026Z,12.40
2022-08-10T01:34:55.901Z,10.20
2022-08-10T01:37:31.335Z,12.60
2022-08-10T01:40:01.755Z,15.20
2022-08-10T01:42:33.142Z,11.80
2022-08-10T01:45:05.427Z,10.30
2022-08-10T01:47:56.380Z,11.20
2022-08-10T01:50:30.430Z,10.80
2022-08-10T01:53:18.943Z,13.60
2022-08-10T01:56:07.793Z,12.20
2022-08-10T01:58:37.072Z,11.60
2022-08-10T02:01:10.750Z,8.40
2022-08-10T02:04:04.007Z,12.30
2022-08-10T02:06:38.980Z,9.40
2022-08-10T02:09:09.040Z,9.00
2022-08-10T02:12:06.755Z,12.20
2022-08-10T02:14:39.793Z,14.70
2022-08-10T02:17:59.322Z,9.60
2022-08-10T02:20:24.770Z,10.60
2022-08-10T02:22:59.843Z,10.20
2022-08-10T02:25:40.772Z,8.30
2022-08-10T02:28:30.288Z,9.60
2022-08-10T02:31:08.806Z,9.60
2022-08-10T02:33:56.730Z,9.30
2022-08-10T02:36:29.703Z,10.20
2022-08-10T02:39:02.042Z,8.60
2022-08-10T02:45:02.209Z,6.70
2022-08-10T02:45:17.972Z,9.00
2022-08-10T02:47:55.612Z,9.30
2022-08-10T02:50:35.318Z,7.20
2022-08-10T02:53:54.755Z,7.70
2022-08-10T02:56:20.138Z,8.50
2022-08-10T02:59:02.619Z,9.40
2022-08-10T03:01:47.226Z,9.40
2022-08-10T03:04:55.249Z,7.80
2022-08-10T03:07:43.722Z,10.00
2022-08-10T03:10:49.303Z,7.80
2022-08-10T03:13:19.256Z,9.40
2022-08-10T03:15:54.307Z,10.30
2022-08-10T03:18:24.756Z,12.50
2022-08-10T03:20:55.042Z,7.90
2022-08-10T03:23:24.591Z,9.30
2022-08-10T03:25:55.989Z,14.30
2022-08-10T03:28:28.134Z,6.90
2022-08-10T03:30:59.536Z,7.10
2022-08-10T03:33:31.184Z,8.80
2022-08-10T03:36:43.020Z,6.90
2022-08-10T03:38:53.942Z,6.60
2022-08-10T03:41:53.278Z,6.80
2022-08-10T03:44:30.472Z,6.80
2022-08-10T03:47:04.005Z,6.80
2022-08-10T03:49:47.640Z,6.90
2022-08-10T03:52:17.208Z,10.70
2022-08-10T03:54:45.959Z,6.60
2022-08-10T03:57:14.514Z,10.60
2022-08-10T03:59:42.794Z,7.80
2022-08-10T04:02:46.985Z,9.80
2022-08-10T04:05:02.532Z,11.30
2022-08-10T04:07:30.950Z,13.40
2022-08-10T04:09:59.055Z,13.80
2022-08-10T04:12:27.202Z,15.50
2022-08-10T04:14:55.168Z,15.30
2022-08-10T04:18:01.236Z,11.70
2022-08-10T04:20:26.245Z,15.60
2022-08-10T04:23:08.087Z,13.90
2022-08-10T04:25:38.527Z,13.60
2022-08-10T04:28:09.440Z,10.20
2022-08-10T04:30:39.089Z,12.00
2022-08-10T04:33:10.442Z,11.00
2022-08-10T04:35:39.607Z,9.70
2022-08-10T04:38:09.364Z,9.40
2022-08-10T04:40:38.087Z,8.00
2022-08-10T04:43:12.792Z,7.10
2022-08-10T04:45:48.647Z,9.80
2022-08-10T04:48:43.065Z,7.00
2022-08-10T04:51:17.081Z,7.70
2022-08-10T04:54:03.889Z,8.80
2022-08-10T04:56:37.642Z,8.70
2022-08-10T04:59:07.854Z,6.20
2022-08-10T05:02:27.998Z,6.90
2022-08-10T05:04:36.541Z,7.10
2022-08-10T05:07:09.521Z,9.30
2022-08-10T05:10:03.431Z,10.70
2022-08-10T05:12:28.038Z,9.00
2022-08-10T05:14:56.665Z,8.10
2022-08-10T05:17:24.813Z,5.90
2022-08-10T05:20:04.640Z,4.00
2022-08-10T05:22:40.001Z,4.20
2022-08-10T05:25:12.096Z,4.60
2022-08-10T05:27:40.840Z,5.60
2022-08-10T05:30:13.831Z,3.90
2022-08-10T05:32:57.299Z,6.80
2022-08-10T05:35:55.548Z,6.50
2022-08-10T05:38:20.581Z,5.00
2022-08-10T05:40:50.191Z,3.80
2022-08-10T05:43:22.247Z,4.50
2022-08-10T05:46:17.522Z,5.10
2022-08-10T05:48:59.146Z,4.30
2022-08-10T05:51:30.417Z,5.10
2022-08-10T05:54:06.162Z,6.10
2022-08-10T05:56:54.302Z,4.10
2022-08-10T06:00:35.829Z,3.00
2022-08-10T06:02:30.693Z,3.70
2022-08-10T06:05:16.615Z,6.80
2022-08-10T06:07:55.464Z,3.20
2022-08-10T06:10:31.257Z,7.00
2022-08-10T06:13:30.658Z,6.70
2022-08-10T06:16:07.154Z,3.60
2022-08-10T06:18:37.450Z,4.70
2022-08-10T06:21:09.675Z,3.90
2022-08-10T06:23:39.530Z,8.00
2022-08-10T06:26:10.368Z,4.20
2022-08-10T06:28:54.020Z,5.60
2022-08-10T06:31:47.748Z,4.10
2022-08-10T06:34:51.278Z,4.00
2022-08-10T06:37:22.669Z,5.30
2022-08-10T06:39:51.023Z,6.10
2022-08-10T06:42:31.672Z,6.80
2022-08-10T06:45:13.768Z,5.20
2022-08-10T06:47:41.682Z,4.10
2022-08-10T06:50:44.500Z,5.00
2022-08-10T06:53:13.726Z,4.20
2022-08-10T06:55:56.758Z,5.40
2022-08-10T06:58:39.648Z,8.50
2022-08-10T07:01:13.426Z,7.10
2022-08-10T07:03:55.531Z,8.40
2022-08-10T07:06:25.037Z,5.80
2022-08-10T07:08:54.961Z,6.70
2022-08-10T07:11:24.591Z,8.60
2022-08-10T07:14:16.122Z,8.20
2022-08-10T07:16:46.534Z,9.90
2022-08-10T07:19:15.272Z,5.90
2022-08-10T07:21:45.760Z,15.10
2022-08-10T07:24:15.886Z,8.70
2022-08-10T07:26:49.957Z,4.60
2022-08-10T07:29:26.357Z,5.60
2022-08-10T07:32:08.556Z,4.90
2022-08-10T07:34:39.519Z,10.90
2022-08-10T07:37:11.813Z,5.40
2022-08-10T07:40:03.821Z,8.70
2022-08-10T07:42:34.386Z,6.20
2022-08-10T07:45:03.312Z,3.80
2022-08-10T07:47:52.795Z,6.20
2022-08-10T07:50:25.836Z,4.30
2022-08-10T07:53:00.344Z,3.00
2022-08-10T07:56:03.750Z,4.10
2022-08-10T07:58:19.757Z,6.60
2022-08-10T08:00:50.917Z,3.10
2022-08-10T08:03:25.520Z,5.70
2022-08-10T08:06:02.672Z,2.80
2022-08-10T08:08:33.670Z,2.30
2022-08-10T08:11:02.888Z,2.40
2022-08-10T08:13:32.399Z,2.90
2022-08-10T08:16:17.255Z,3.70
2022-08-10T08:18:58.325Z,4.90
2022-08-10T08:24:09.603Z,7.00
2022-08-10T08:24:32.711Z,2.60
2022-08-10T08:27:05.953Z,4.60
2022-08-10T08:29:36.699Z,3.10
2022-08-10T08:32:05.855Z,5.40
2022-08-10T08:34:37.706Z,4.70
2022-08-10T08:37:09.190Z,4.30
2022-08-10T08:39:37.942Z,3.50
2022-08-10T08:42:21.349Z,5.70
2022-08-10T08:45:07.755Z,3.60
2022-08-10T08:48:06.551Z,4.20
2022-08-10T08:50:56.692Z,2.80
2022-08-10T08:54:00.923Z,4.70
2022-08-10T08:56:59.997Z,6.80
2022-08-10T08:59:57.160Z,5.20
2022-08-10T09:02:54.698Z,3.90
2022-08-10T09:06:00.818Z,6.60
2022-08-10T09:08:35.168Z,7.00
2022-08-10T09:11:28.515Z,5.50
2022-08-10T09:14:26.163Z,3.20
2022-08-10T09:17:17.077Z,6.40
2022-08-10T09:19:59.349Z,7.90
2022-08-10T09:23:02.078Z,4.40
2022-08-10T09:25:36.721Z,4.50
2022-08-10T09:28:07.649Z,7.00
2022-08-10T09:31:10.775Z,6.90
2022-08-10T09:36:29.832Z,4.00
2022-08-10T09:37:11.774Z,3.60
2022-08-10T09:40:12.573Z,3.20
2022-08-10T09:43:14.161Z,4.30
2022-08-10T09:46:06.666Z,4.50
2022-08-10T09:48:54.829Z,4.10
2022-08-10T09:51:55.105Z,6.00
2022-08-10T09:54:38.396Z,7.60
2022-08-10T09:57:55.057Z,4.90
2022-08-10T10:00:26.670Z,4.40
2022-08-10T10:03:28.081Z,3.70
2022-08-10T10:06:11.154Z,4.40
2022-08-10T10:09:09.993Z,2.30
2022-08-10T10:12:18.384Z,3.70
2022-08-10T10:15:24.812Z,5.90
2022-08-10T10:17:53.657Z,2.90
2022-08-10T10:20:33.972Z,8.60
2022-08-10T10:23:15.018Z,6.60
2022-08-10T10:26:13.002Z,2.10
2022-08-10T10:29:57.540Z,3.10
2022-08-10T10:32:36.938Z,5.50
2022-08-10T10:35:26.945Z,4.40
2022-08-10T10:38:01.003Z,4.20
2022-08-10T10:41:01.583Z,4.10
2022-08-10T10:43:59.188Z,10.70
2022-08-10T10:47:09.659Z,8.60
2022-08-10T10:50:02.701Z,1.90
2022-08-10T10:52:49.926Z,2.20
2022-08-10T10:55:28.808Z,10.20
2022-08-10T10:58:20.037Z,4.20
2022-08-10T11:01:07.903Z,2.90
2022-08-10T11:03:58.357Z,3.90
2022-08-10T11:07:04.145Z,3.80
2022-08-10T11:10:09.792Z,3.30
2022-08-10T11:12:45.816Z,6.10
2022-08-10T11:15:43.193Z,3.40
2022-08-10T11:18:35.521Z,2.80
2022-08-10T11:21:19.190Z,1.40
2022-08-10T11:24:48.163Z,3.20
2022-08-10T11:27:21.775Z,2.20
2022-08-10T11:30:08.531Z,1.20
2022-08-10T11:32:57.661Z,5.80
2022-08-10T11:35:41.740Z,7.60
2022-08-10T11:38:31.559Z,5.50
2022-08-10T11:42:07.981Z,2.20
2022-08-10T11:44:08.575Z,1.60
2022-08-10T11:46:54.928Z,3.20
2022-08-10T11:49:40.013Z,2.50
2022-08-10T11:52:21.612Z,3.50
2022-08-10T11:55:02.313Z,1.90
2022-08-10T11:57:54.757Z,3.70
2022-08-10T12:00:22.007Z,5.50
2022-08-10T12:02:59.708Z,2.70
2022-08-10T12:05:51.679Z,6.00
2022-08-10T12:10:05.628Z,5.60
2022-08-10T12:11:25.291Z,4.00
2022-08-10T12:14:21.459Z,11.40
2022-08-10T12:16:59.593Z,4.10
2022-08-10T12:20:02.310Z,3.00
2022-08-10T12:22:39.856Z,3.70
2022-08-10T12:25:54.892Z,2.90
2022-08-10T12:28:20.631Z,10.90
2022-08-10T12:31:02.155Z,5.50
2022-08-10T12:34:02.307Z,4.90
2022-08-10T12:36:36.755Z,3.80
2022-08-10T12:39:16.822Z,5.80
2022-08-10T12:42:06.121Z,7.90
2022-08-10T12:44:44.906Z,4.90
2022-08-10T12:47:34.634Z,5.30
2022-08-10T12:50:34.065Z,5.20
2022-08-10T12:53:27.659Z,2.90
2022-08-10T12:55:56.750Z,3.70
2022-08-10T12:58:59.927Z,4.20
2022-08-10T13:01:18.007Z,4.00
2022-08-10T13:04:21.855Z,4.30
2022-08-10T13:06:46.375Z,5.00
2022-08-10T13:09:21.498Z,1.90
2022-08-10T13:14:53.456Z,4.40
2022-08-10T13:17:38.783Z,4.10
2022-08-10T13:20:22.603Z,2.50
2022-08-10T13:22:53.832Z,2.60
2022-08-10T13:25:28.614Z,4.30
2022-08-10T13:30:50.910Z,1.60
2022-08-10T13:34:39.246Z,3.20
2022-08-10T13:36:16.090Z,4.10
2022-08-10T13:38:48.857Z,3.90
2022-08-10T13:41:18.640Z,2.90
2022-08-10T13:43:56.324Z,2.20
2022-08-10T13:46:25.289Z,5.40
2022-08-10T13:48:55.453Z,3.20
2022-08-10T13:51:56.399Z,3.90
2022-08-10T13:54:21.977Z,5.80
2022-08-10T13:56:51.517Z,8.80
2022-08-10T13:59:20.646Z,20.70
2022-08-10T14:01:51.903Z,2.20
2022-08-10T14:04:20.687Z,6.90
2022-08-10T14:06:56.636Z,1.80
2022-08-10T14:09:33.401Z,5.20
2022-08-10T14:12:02.049Z,2.30
2022-08-10T14:14:32.167Z,2.30
2022-08-10T14:17:01.905Z,2.00
2022-08-10T14:19:36.628Z,1.60
2022-08-10T14:22:07.603Z,3.10
2022-08-10T14:24:35.793Z,2.60
2022-08-10T14:27:13.861Z,1.80
2022-08-10T14:29:47.057Z,2.50
2022-08-10T14:32:23.054Z,3.90
2022-08-10T14:36:14.672Z,2.20
2022-08-10T14:37:48.847Z,3.20
2022-08-10T14:40:22.943Z,4.90
2022-08-10T14:42:55.761Z,1.80
2022-08-10T14:45:28.730Z,2.30
2022-08-10T14:48:04.072Z,2.80
2022-08-10T14:50:34.258Z,1.70
2022-08-10T14:53:26.577Z,2.40
2022-08-10T14:56:01.138Z,3.10
2022-08-10T14:58:35.723Z,6.60
2022-08-10T15:01:08.377Z,3.30
2022-08-10T15:04:01.263Z,6.20
2022-08-10T15:06:32.246Z,5.10
2022-08-10T15:09:12.601Z,2.40
2022-08-10T15:12:13.940Z,3.20
2022-08-10T15:14:48.909Z,2.90
2022-08-10T15:17:26.760Z,2.90
2022-08-10T15:20:02.441Z,2.40
2022-08-10T15:22:38.642Z,2.90
2022-08-10T15:25:17.864Z,3.80
2022-08-10T15:27:57.380Z,2.60
2022-08-10T15:30:31.829Z,2.40
2022-08-10T15:34:02.982Z,3.90
2022-08-10T15:36:34.693Z,3.20
2022-08-10T15:40:23.992Z,5.60
2022-08-10T15:42:21.435Z,4.20
2022-08-10T15:44:53.601Z,2.30
2022-08-10T15:47:45.106Z,3.20
2022-08-10T15:50:22.290Z,3.40
2022-08-10T15:53:00.644Z,2.30
2022-08-10T15:55:43.219Z,3.60
2022-08-10T15:58:38.948Z,5.30
2022-08-10T16:02:14.242Z,3.20
2022-08-10T16:04:16.165Z,3.00
2022-08-10T16:06:50.081Z,2.80
2022-08-10T16:10:22.743Z,3.30
2022-08-10T16:12:29.365Z,2.90
2022-08-10T16:15:04.440Z,4.70
2022-08-10T16:17:55.035Z,3.60
2022-08-10T16:20:55.415Z,1.40
2022-08-10T16:23:36.960Z,5.60
2022-08-10T16:26:15.403Z,6.10
2022-08-10T16:28:50.860Z,3.60
2022-08-10T16:31:25.784Z,4.60
2022-08-10T16:33:57.777Z,6.30
2022-08-10T16:36:42.379Z,3.00
2022-08-10T16:39:56.832Z,3.90
2022-08-10T16:42:16.850Z,5.80
2022-08-10T16:44:54.718Z,4.50
2022-08-10T16:47:37.186Z,3.50
2022-08-10T16:50:09.593Z,3.50
2022-08-10T16:52:39.496Z,6.10
2022-08-10T16:55:48.541Z,4.10
2022-08-10T16:58:22.152Z,5.10
2022-08-10T17:00:51.226Z,2.40
2022-08-10T17:04:08.302Z,3.90
2022-08-10T17:06:29.989Z,3.10
2022-08-10T17:09:01.063Z,3.20
2022-08-10T17:11:32.409Z,3.30
2022-08-10T17:14:02.327Z,5.60
2022-08-10T17:16:40.707Z,6.50
2022-08-10T17:19:22.919Z,6.50
2022-08-10T17:21:59.758Z,4.50
2022-08-10T17:24:35.524Z,4.00
2022-08-10T17:28:04.798Z,8.90
2022-08-10T17:30:04.406Z,13.00
2022-08-10T17:32:50.101Z,5.40
2022-08-10T17:35:23.513Z,3.70
2022-08-10T17:38:03.440Z,5.10
2022-08-10T17:40:33.520Z,10.90
2022-08-10T17:43:02.633Z,7.10
2022-08-10T17:45:48.246Z,6.30
2022-08-10T17:48:24.991Z,4.70
2022-08-10T17:50:54.416Z,5.90
2022-08-10T17:53:28.015Z,4.00
2022-08-10T17:55:59.140Z,6.00
2022-08-10T17:58:29.197Z,2.50
2022-08-10T18:01:41.104Z,4.20
2022-08-10T18:03:55.871Z,4.70
2022-08-10T18:06:25.017Z,4.00
2022-08-10T18:08:56.921Z,5.30
2022-08-10T18:11:33.565Z,5.00
2022-08-10T18:14:07.551Z,8.60
2022-08-10T18:16:36.068Z,6.30
2022-08-10T18:19:13.813Z,8.90
2022-08-10T18:21:47.367Z,5.30
2022-08-10T18:24:21.387Z,5.40
2022-08-10T18:26:52.752Z,3.80
2022-08-10T18:29:29.423Z,4.50
2022-08-10T18:32:02.906Z,5.60
2022-08-10T18:34:32.933Z,4.30
2022-08-10T18:37:05.458Z,10.40
2022-08-10T18:39:37.698Z,4.30
2022-08-10T18:42:33.408Z,4.40
2022-08-10T18:45:09.667Z,4.30
2022-08-10T18:48:00.084Z,4.70
2022-08-10T18:50:32.881Z,8.00
2022-08-10T18:53:04.884Z,6.20
2022-08-10T18:56:09.830Z,5.60
2022-08-10T18:58:49.750Z,4.30
2022-08-10T19:01:38.620Z,6.50
2022-08-10T19:04:28.078Z,7.60
2022-08-10T19:07:04.767Z,6.90
2022-08-10T19:09:47.575Z,4.00
2022-08-10T19:12:41.694Z,7.10
2022-08-10T19:15:10.450Z,4.90
2022-08-10T19:18:14.175Z,5.70
2022-08-10T19:20:50.037Z,5.90
2022-08-10T19:23:58.555Z,9.10
2022-08-10T19:26:43.834Z,4.90
2022-08-10T19:30:08.391Z,6.20
2022-08-10T19:32:58.778Z,8.50
2022-08-10T19:36:03.383Z,6.00
2022-08-10T19:38:49.531Z,6.00
2022-08-10T19:41:44.187Z,4.10
2022-08-10T19:44:53.063Z,7.00
2022-08-10T19:47:49.199Z,4.70
2022-08-10T19:53:03.958Z,6.80
2022-08-10T19:55:42.400Z,5.90
2022-08-10T19:58:37.728Z,3.40
2022-08-10T20:01:07.687Z,8.80
2022-08-10T20:03:56.861Z,4.80
2022-08-10T20:06:40.189Z,8.00
2022-08-10T20:09:18.511Z,5.60
2022-08-10T20:11:54.824Z,6.10
2022-08-10T20:14:33.846Z,3.50
2022-08-10T20:17:09.909Z,4.90
2022-08-10T20:19:58.939Z,6.60
2022-08-10T20:22:30.547Z,4.40
2022-08-10T20:25:14.363Z,5.90
2022-08-10T20:27:59.524Z,4.50
2022-08-10T20:30:41.967Z,6.30
2022-08-10T20:33:17.285Z,5.80
2022-08-10T20:38:41.203Z,7.20
2022-08-10T20:41:33.159Z,6.60
2022-08-10T20:44:36.576Z,6.80
2022-08-10T20:47:18.688Z,4.50
2022-08-10T20:50:01.370Z,10.00
2022-08-10T20:52:31.073Z,4.00
2022-08-10T20:55:02.341Z,3.40
2022-08-10T20:57:56.717Z,5.80
2022-08-10T21:00:58.198Z,5.70
2022-08-10T21:03:43.853Z,4.90
2022-08-10T21:06:42.712Z,7.20
2022-08-10T21:09:14.590Z,6.60
2022-08-10T21:12:01.133Z,8.10
2022-08-10T21:14:44.227Z,10.20
2022-08-10T21:17:43.196Z,7.30
2022-08-10T21:20:30.770Z,8.90
2022-08-10T21:25:42.140Z,6.80
2022-08-10T21:26:10.579Z,8.60
2022-08-10T21:29:00.391Z,6.20
2022-08-10T21:31:36.669Z,7.60
2022-08-10T21:34:05.237Z,7.40
2022-08-10T21:36:50.878Z,7.70
2022-08-10T21:39:42.838Z,8.00
2022-08-10T21:43:06.342Z,7.00
2022-08-10T21:46:18.289Z,4.90
2022-08-10T21:49:11.451Z,6.10
2022-08-10T21:52:03.836Z,7.20
2022-08-10T21:54:59.972Z,5.90
2022-08-10T21:58:12.547Z,5.10
2022-08-10T22:01:08.986Z,5.20
2022-08-10T22:04:00.466Z,8.90
2022-08-10T22:06:52.163Z,10.70
2022-08-10T22:09:45.984Z,7.80
2022-08-10T22:12:35.766Z,5.50
2022-08-10T22:16:05.602Z,7.00
2022-08-10T22:18:45.321Z,6.00
2022-08-10T22:22:05.960Z,7.00
2022-08-10T22:25:16.417Z,9.90
2022-08-10T22:28:17.582Z,8.90
2022-08-10T22:34:40.368Z,5.30
2022-08-10T22:37:37.281Z,7.60
2022-08-10T22:40:30.472Z,7.80
2022-08-10T22:43:35.176Z,8.70
2022-08-10T22:46:31.026Z,3.70
2022-08-10T22:49:01.975Z,5.50
2022-08-10T22:51:48.083Z,7.40
2022-08-10T23:00:16.038Z,11.50
2022-08-10T23:02:52.692Z,10.40
2022-08-10T23:05:31.306Z,4.90
2022-08-10T23:08:29.499Z,6.90
2022-08-10T23:11:08.695Z,8.80
2022-08-10T23:13:43.260Z,5.50
2022-08-10T23:17:01.481Z,7.40
2022-08-10T23:19:32.626Z,6.10
2022-08-10T23:22:05.623Z,8.20
2022-08-10T23:24:39.728Z,5.50
2022-08-10T23:27:37.380Z,11.40
2022-08-10T23:30:10.100Z,6.50
2022-08-10T23:32:46.530Z,6.00
2022-08-10T23:36:13.110Z,4.50
2022-08-10T23:38:07.109Z,6.30
2022-08-10T23:40:36.481Z,6.80
2022-08-10T23:43:07.012Z,8.90
2022-08-10T23:45:53.012Z,6.30
2022-08-10T23:48:37.809Z,6.80
2022-08-10T23:51:16.959Z,9.10
2022-08-10T23:53:48.210Z,7.10
2022-08-10T23:56:22.321Z,10.70
2022-08-10T23:58:54.900Z,7.70
